Time;durP1;ratioP1;P1;durP2;ratioP2;P2;SDS_P1;SDS_P2;PMS_P1;PMS_P2;Temp;Humidity;BMP_temperature;BMP_pressure;BME280_temperature;BME280_humidity;BME280_pressure;Samples;Min_cycle;Max_cycle;Signal;HPM_P1;HPM_P2
2020/12/16 00:00:58;;;;;;;;;72.40;56.20;;;;;8.33;48.05;99129.72;6188323;28;97414;-59
2020/12/16 00:04:00;;;;;;;;;72.25;56.50;;;;;8.49;47.87;99154.38;6188441;28;96574;-59
2020/12/16 00:07:01;;;;;;;;;72.00;58.50;;;;;8.34;47.95;99129.53;6187982;28;97363;-59
2020/12/16 00:10:08;;;;;;;;;70.00;54.40;;;;;8.52;48.02;99148.59;6188062;28;96812;-59
2020/12/16 00:13:11;;;;;;;;;72.40;54.00;;;;;8.55;47.79;99163.50;6187516;28;97625;-59
2020/12/16 00:16:12;;;;;;;;;67.80;53.00;;;;;8.55;48.14;99158.94;6187622;28;96450;-59
2020/12/16 00:19:14;;;;;;;;;69.20;52.60;;;;;8.58;48.22;99165.78;6187623;28;96976;-58
2020/12/16 00:22:15;;;;;;;;;69.25;53.00;;;;;8.56;48.12;99155.22;6185571;28;98500;-59
2020/12/16 00:25:17;;;;;;;;;68.20;51.00;;;;;8.59;48.17;99156.69;6187826;28;97134;-59
2020/12/16 00:28:18;;;;;;;;;70.60;53.60;;;;;8.62;48.08;99154.41;6187883;28;97224;-59
2020/12/16 00:31:20;;;;;;;;;70.00;52.40;;;;;8.01;48.20;99048.00;6188107;28;97246;-59
2020/12/16 00:34:21;;;;;;;;;67.25;52.25;;;;;8.78;48.21;99158.59;6186223;28;96781;-59
2020/12/16 00:37:24;;;;;;;;;72.60;55.20;;;;;8.80;47.95;99164.59;6187390;28;97210;-59
2020/12/16 00:40:25;;;;;;;;;72.40;53.00;;;;;8.78;47.72;99161.28;6186925;28;98603;-59
2020/12/16 00:43:27;;;;;;;;;71.00;53.60;;;;;8.81;47.57;99165.41;6188027;28;97354;-59
2020/12/16 00:46:28;;;;;;;;;70.80;53.40;;;;;8.75;47.48;99169.75;6188221;28;97299;-59
2020/12/16 00:49:30;;;;;;;;;67.00;52.00;;;;;8.75;47.80;99160.88;6188058;28;97465;-59
2020/12/16 00:52:31;;;;;;;;;72.25;55.00;;;;;8.81;47.65;99165.41;6187831;28;97208;-59
2020/12/16 00:55:34;;;;;;;;;69.50;52.25;;;;;8.79;47.67;99162.13;6184901;28;96460;-59
2020/12/16 00:58:35;;;;;;;;;72.40;53.00;;;;;8.78;47.30;99157.78;6169563;28;98506;-59
2020/12/16 01:01:37;;;;;;;;;69.80;53.00;;;;;8.76;47.39;99162.50;6202739;28;97090;-59
2020/12/16 01:04:39;;;;;;;;;71.80;54.00;;;;;8.66;47.08;99174.47;6185013;28;96921;-59
2020/12/16 01:07:40;;;;;;;;;69.20;52.80;;;;;8.64;47.11;99171.19;6185995;28;99095;-59
2020/12/16 01:10:42;;;;;;;;;68.00;53.00;;;;;8.52;46.79;99172.78;6185725;28;98427;-59
2020/12/16 01:13:45;;;;;;;;;73.00;55.20;;;;;8.43;46.53;99168.63;6186770;28;98532;-59
2020/12/16 01:16:48;;;;;;;;;77.00;59.20;;;;;8.28;46.12;99159.84;6186767;28;97206;-59
2020/12/16 01:19:55;;;;;;;;;76.00;60.60;;;;;8.21;46.27;99161.66;6177946;28;97887;-59
2020/12/16 01:22:57;;;;;;;;;72.40;56.60;;;;;7.89;46.23;99122.91;6163823;28;97717;-59
2020/12/16 01:25:58;;;;;;;;;77.60;63.60;;;;;8.02;46.34;99154.34;6163797;28;98394;-59
2020/12/16 01:29:02;;;;;;;;;77.60;66.40;;;;;7.95;46.39;99148.94;6169857;28;97355;-59
2020/12/16 01:32:05;;;;;;;;;79.00;67.00;;;;;7.97;46.42;99164.84;6185674;28;97399;-59
2020/12/16 01:35:10;;;;;;;;;83.00;68.75;;;;;7.84;46.64;99152.19;6186998;28;99307;-59
2020/12/16 01:38:14;;;;;;;;;89.50;72.00;;;;;7.83;46.56;99162.09;6203195;28;97407;-59
2020/12/16 01:41:19;;;;;;;;;87.40;73.00;;;;;7.77;46.75;99170.13;6161287;28;98077;-59
2020/12/16 01:44:28;;;;;;;;;88.75;71.25;;;;;7.70;46.55;99180.81;6178687;28;97321;-59
2020/12/16 01:47:36;;;;;;;;;78.60;71.00;;;;;7.69;46.60;99176.47;6178061;28;97456;-59
2020/12/16 01:50:44;;;;;;;;;79.60;70.00;;;;;7.64;46.93;99178.91;6186644;28;97065;-59
2020/12/16 01:54:01;;;;;;;;;80.50;68.00;;;;;7.59;46.96;99178.66;6186196;28;96569;-59
2020/12/16 01:57:04;;;;;;;;;87.40;71.20;;;;;7.59;46.99;99185.88;6186021;28;97490;-59
2020/12/16 02:00:18;;;;;;;;;79.25;69.00;;;;;7.59;47.28;99193.91;6186594;28;97506;-59
2020/12/16 02:03:26;;;;;;;;;85.20;70.60;;;;;7.61;47.24;99191.88;6185758;28;97124;-59
2020/12/16 02:06:39;;;;;;;;;81.20;69.40;;;;;7.63;47.40;99195.19;6186690;28;97344;-59
2020/12/16 02:09:46;;;;;;;;;85.00;71.60;;;;;7.67;47.42;99197.28;6186431;28;97789;-59
2020/12/16 02:12:51;;;;;;;;;84.80;73.40;;;;;7.65;47.29;99190.47;6188258;28;99038;-58
2020/12/16 02:15:53;;;;;;;;;84.25;74.25;;;;;7.66;46.92;99201.00;6186485;28;96910;-59
2020/12/16 02:18:57;;;;;;;;;83.60;70.60;;;;;7.63;46.99;99193.34;6186451;28;96915;-59
2020/12/16 02:22:12;;;;;;;;;85.50;69.00;;;;;7.61;47.17;99203.44;6186399;28;96917;-59
2020/12/16 02:25:13;;;;;;;;;79.20;65.60;;;;;7.58;47.50;99198.44;6186276;28;98459;-59
2020/12/16 02:28:22;;;;;;;;;79.60;68.40;;;;;7.62;47.83;99201.59;6202619;28;97427;-59
2020/12/16 02:31:27;;;;;;;;;83.60;68.00;;;;;7.64;48.08;99213.78;6186171;28;98526;-59
2020/12/16 02:34:42;;;;;;;;;79.00;64.50;;;;;7.75;47.92;99201.69;6186112;28;98647;-59
2020/12/16 02:37:44;;;;;;;;;80.00;69.60;;;;;7.78;48.06;99204.78;6177709;28;97092;-59
2020/12/16 02:40:45;;;;;;;;;82.40;69.00;;;;;7.84;48.00;99201.34;6161509;28;97463;-59
2020/12/16 02:43:49;;;;;;;;;80.40;66.00;;;;;7.87;47.90;99193.94;6166055;28;96738;-59
2020/12/16 02:46:56;;;;;;;;;87.00;75.00;;;;;7.90;47.78;99201.56;6185711;28;96733;-59
2020/12/16 02:49:57;;;;;;;;;83.50;73.00;;;;;7.95;47.80;99196.44;6186385;28;97424;-59
2020/12/16 02:52:59;;;;;;;;;79.20;69.20;;;;;8.00;47.83;99208.25;6186877;28;96582;-58
2020/12/16 02:56:04;;;;;;;;;85.25;69.25;;;;;8.01;47.40;99203.72;6169087;28;96581;-59
2020/12/16 02:59:20;;;;;;;;;79.50;70.50;;;;;8.01;47.27;99206.41;6185102;28;97069;-59
2020/12/16 03:02:25;;;;;;;;;79.00;65.00;;;;;7.66;47.00;99166.13;6176512;28;97392;-59
2020/12/16 03:05:34;;;;;;;;;77.00;64.60;;;;;7.77;47.91;99176.28;6183901;28;97152;-59
2020/12/16 03:08:38;;;;;;;;;77.00;61.25;;;;;8.01;47.81;99207.25;6185938;28;98496;-59
2020/12/16 03:11:44;;;;;;;;;71.25;55.00;;;;;8.09;48.28;99217.81;6185156;28;97547;-59
2020/12/16 03:14:46;;;;;;;;;73.00;57.00;;;;;8.18;48.47;99215.78;6185541;28;97731;-59
2020/12/16 03:17:48;;;;;;;;;74.50;59.00;;;;;8.23;48.29;99216.84;6185273;28;97507;-59
2020/12/16 03:20:50;;;;;;;;;74.00;59.00;;;;;8.32;48.19;99211.34;6184886;28;98123;-59
2020/12/16 03:23:52;;;;;;;;;72.00;54.75;;;;;8.37;48.73;99211.56;6184295;28;97427;-59
2020/12/16 03:27:12;;;;;;;;;69.20;53.00;;;;;8.27;48.46;99190.41;6186020;28;98001;-59
2020/12/16 03:30:28;;;;;;;;;70.00;53.00;;;;;8.47;48.30;99225.47;6189994;28;97064;-59
2020/12/16 03:33:48;;;;;;;;;73.00;57.00;;;;;8.39;48.44;99209.53;6189586;28;96676;-59
2020/12/16 03:37:12;;;;;;;;;73.00;58.00;;;;;8.49;48.20;99218.88;6188109;28;97230;-59
2020/12/16 03:40:14;;;;;;;;;72.00;55.50;;;;;8.51;47.97;99216.81;6179401;28;96821;-59
2020/12/16 03:43:24;;;;;;;;;70.20;55.20;;;;;8.50;48.03;99225.09;6181466;28;96928;-59
2020/12/16 03:46:25;;;;;;;;;69.60;53.00;;;;;8.29;48.19;99196.44;6188149;28;99194;-59
2020/12/16 03:49:27;;;;;;;;;67.00;51.00;;;;;8.52;48.35;99229.22;6188215;28;97045;-59
2020/12/16 03:52:30;;;;;;;;;70.60;52.00;;;;;8.55;48.36;99226.13;6187141;28;98309;-59
2020/12/16 03:55:57;;;;;;;;;68.40;52.00;;;;;8.56;48.22;99222.41;6179233;28;96920;-59
2020/12/16 03:59:09;;;;;;;;;74.00;59.00;;;;;8.52;47.87;99223.84;6179510;28;98718;-59
2020/12/16 04:02:21;;;;;;;;;69.00;54.20;;;;;8.44;47.65;99218.66;6182875;28;97441;-59
2020/12/16 04:05:36;;;;;;;;;68.80;52.00;;;;;8.45;47.76;99220.31;6179271;28;97542;-59
2020/12/16 04:08:43;;;;;;;;;68.60;52.60;;;;;8.49;47.96;99216.19;6166851;28;96651;-59
2020/12/16 04:12:07;;;;;;;;;65.60;50.00;;;;;8.58;48.51;99227.59;6188204;28;97941;-59
2020/12/16 04:15:12;;;;;;;;;66.20;50.40;;;;;8.65;48.59;99236.50;6187290;28;98117;-59
2020/12/16 04:18:13;;;;;;;;;63.80;48.20;;;;;8.73;48.57;99232.81;6187281;28;96973;-59
2020/12/16 04:21:19;;;;;;;;;63.50;49.50;;;;;8.81;48.66;99236.16;6186962;28;97424;-59
2020/12/16 04:24:20;;;;;;;;;64.00;49.00;;;;;8.87;48.48;99223.75;6186120;28;96804;-59
2020/12/16 04:27:37;;;;;;;;;65.60;50.00;;;;;8.90;48.35;99226.03;6186821;28;96721;-59
2020/12/16 04:30:39;;;;;;;;;59.60;46.40;;;;;8.94;48.38;99236.19;6186816;28;98597;-59
2020/12/16 04:33:40;;;;;;;;;58.00;45.00;;;;;9.01;48.71;99242.41;6186409;28;96461;-59
2020/12/16 04:36:49;;;;;;;;;57.80;44.80;;;;;9.01;48.70;99242.41;6187264;28;97864;-59
2020/12/16 04:39:52;;;;;;;;;59.50;46.00;;;;;9.06;48.68;99242.63;6185764;28;96586;-59
2020/12/16 04:43:03;;;;;;;;;56.00;44.00;;;;;9.11;48.65;99240.16;6185726;28;96524;-59
2020/12/16 04:46:06;;;;;;;;;54.00;43.60;;;;;9.11;48.62;99236.66;6186269;28;96713;-59
2020/12/16 04:49:10;;;;;;;;;56.00;44.00;;;;;9.12;48.66;99233.75;6187717;28;97219;-59
2020/12/16 04:52:22;;;;;;;;;55.00;43.00;;;;;8.92;48.69;99221.28;6185991;28;98701;-59
2020/12/16 04:55:42;;;;;;;;;54.40;44.00;;;;;9.22;48.74;99249.50;6186412;28;98556;-59
2020/12/16 04:58:56;;;;;;;;;56.00;44.00;;;;;9.25;48.59;99240.19;6184936;28;97184;-59
2020/12/16 05:02:02;;;;;;;;;55.40;44.00;;;;;9.27;48.45;99248.88;6185452;28;96651;-59
2020/12/16 05:05:15;;;;;;;;;57.80;44.60;;;;;9.32;48.40;99252.63;6183875;28;97600;-59
2020/12/16 05:08:17;;;;;;;;;60.40;45.40;;;;;9.35;48.34;99249.50;6186891;28;96455;-59
2020/12/16 05:11:22;;;;;;;;;54.00;44.00;;;;;9.34;48.25;99252.41;6186065;28;96907;-59
2020/12/16 05:14:24;;;;;;;;;55.20;43.40;;;;;9.36;48.14;99258.41;6186884;28;97593;-59
2020/12/16 05:17:26;;;;;;;;;57.00;44.20;;;;;9.35;48.01;99259.44;6186112;28;97248;-59
2020/12/16 05:20:52;;;;;;;;;53.25;43.00;;;;;9.32;48.07;99262.56;6187248;28;98090;-59
2020/12/16 05:23:53;;;;;;;;;53.80;42.00;;;;;9.32;47.87;99266.09;6186762;28;97530;-59
2020/12/16 05:26:55;;;;;;;;;54.00;43.00;;;;;9.29;47.90;99277.22;6185245;28;97433;-60
2020/12/16 05:30:06;;;;;;;;;53.00;40.60;;;;;9.29;48.01;99277.22;6186572;28;97562;-59
2020/12/16 05:33:07;;;;;;;;;54.80;42.80;;;;;9.26;48.02;99274.97;6186616;28;97491;-59
2020/12/16 05:36:10;;;;;;;;;57.50;45.25;;;;;9.22;47.97;99280.94;6186351;28;96693;-58
2020/12/16 05:39:11;;;;;;;;;57.40;44.00;;;;;9.13;47.89;99283.84;6176177;28;98059;-59
2020/12/16 05:42:15;;;;;;;;;60.40;47.20;;;;;8.88;47.70;99253.13;6179733;28;97026;-59
2020/12/16 05:45:22;;;;;;;;;60.20;46.60;;;;;9.01;47.86;99290.81;6186093;28;98447;-59
2020/12/16 05:48:28;;;;;;;;;62.00;48.00;;;;;8.96;47.79;99295.97;6186400;28;98117;-59
2020/12/16 05:51:30;;;;;;;;;58.00;45.00;;;;;8.89;47.89;99299.69;6186069;28;97423;-59
2020/12/16 05:54:35;;;;;;;;;57.50;45.00;;;;;8.91;48.13;99293.06;6186275;28;97269;-59
2020/12/16 05:57:36;;;;;;;;;57.60;44.20;;;;;8.89;47.77;99291.63;6186051;28;97618;-59
2020/12/16 06:00:43;;;;;;;;;60.60;46.00;;;;;8.89;48.09;99291.63;6185493;28;97652;-59
2020/12/16 06:03:47;;;;;;;;;56.80;44.00;;;;;8.83;47.99;99298.63;6185339;28;98975;-59
2020/12/16 06:06:49;;;;;;;;;60.00;47.00;;;;;8.78;48.00;99298.38;6184875;28;97093;-59
2020/12/16 06:09:51;;;;;;;;;57.50;44.00;;;;;8.78;48.08;99292.19;6186260;28;98522;-59
2020/12/16 06:12:59;;;;;;;;;60.00;45.00;;;;;8.53;47.83;99265.81;6184989;28;97555;-59
2020/12/16 06:16:06;;;;;;;;;55.40;44.00;;;;;8.73;47.58;99306.22;6186316;28;97951;-59
2020/12/16 06:19:10;;;;;;;;;55.75;42.75;;;;;8.68;47.62;99308.69;6185826;28;97660;-59
2020/12/16 06:22:11;;;;;;;;;60.00;45.50;;;;;8.68;47.72;99311.38;6185963;28;96969;-59
2020/12/16 06:25:16;;;;;;;;;61.00;47.25;;;;;8.64;47.57;99315.50;6184840;28;97495;-59
2020/12/16 06:28:18;;;;;;;;;61.40;47.00;;;;;8.47;47.18;99298.84;6184759;28;96631;-59
2020/12/16 06:31:22;;;;;;;;;59.20;46.40;;;;;8.55;47.52;99322.84;6185255;28;96629;-59
2020/12/16 06:34:25;;;;;;;;;57.00;45.00;;;;;8.51;47.86;99324.28;6194001;28;98536;-59
2020/12/16 06:37:26;;;;;;;;;59.20;45.00;;;;;8.50;47.68;99317.25;6195108;28;97627;-59
2020/12/16 06:40:45;;;;;;;;;58.00;46.00;;;;;8.50;47.81;99321.81;6192438;28;97260;-59
2020/12/16 06:43:53;;;;;;;;;56.40;45.40;;;;;8.55;47.92;99332.81;6197062;28;97192;-59
2020/12/16 06:46:58;;;;;;;;;55.00;43.00;;;;;8.60;48.24;99331.16;6196770;28;97575;-59
2020/12/16 06:50:23;;;;;;;;;55.20;44.00;;;;;8.65;48.21;99330.56;6186686;28;97341;-59
2020/12/16 06:53:28;;;;;;;;;59.40;45.40;;;;;8.66;47.20;99333.06;6195813;28;97039;-59
2020/12/16 06:56:30;;;;;;;;;55.00;44.00;;;;;8.69;47.23;99330.00;6174914;28;97660;-60
2020/12/16 06:59:45;;;;;;;;;55.20;44.00;;;;;8.72;47.91;99333.28;6189444;28;96850;-60
2020/12/16 07:02:47;;;;;;;;;56.60;44.40;;;;;8.77;47.84;99325.47;6185159;28;97368;-60
2020/12/16 07:05:49;;;;;;;;;57.50;44.00;;;;;8.73;47.63;99319.66;6188874;28;97428;-59
2020/12/16 07:09:13;;;;;;;;;55.40;45.00;;;;;8.79;46.85;99323.41;6182196;28;96912;-60
2020/12/16 07:12:29;;;;;;;;;56.20;44.00;;;;;8.68;46.68;99312.19;6186653;28;98385;-60
2020/12/16 07:15:46;;;;;;;;;59.00;45.75;;;;;8.83;46.23;99324.69;6185599;28;96828;-60
2020/12/16 07:18:51;;;;;;;;;56.40;44.00;;;;;9.06;46.36;99322.50;6184676;28;96915;-60
2020/12/16 07:21:53;;;;;;;;;59.40;46.00;;;;;9.77;45.29;99307.56;6193556;28;97525;-60
2020/12/16 07:24:55;;;;;;;;;58.80;45.40;;;;;10.89;43.28;99320.88;6189166;28;97643;-60
2020/12/16 07:27:57;;;;;;;;;61.25;47.25;;;;;11.77;41.16;99330.00;6186439;28;97671;-60
2020/12/16 07:31:04;;;;;;;;;58.20;44.80;;;;;12.02;40.46;99332.72;6187176;28;97561;-61
2020/12/16 07:34:06;;;;;;;;;60.80;46.20;;;;;11.83;41.04;99336.38;6187677;28;97503;-60
2020/12/16 07:37:08;;;;;;;;;60.00;47.40;;;;;11.53;41.40;99336.94;6182632;28;97660;-60
2020/12/16 07:40:14;;;;;;;;;60.60;46.00;;;;;11.32;41.76;99334.59;6184304;28;97469;-59
2020/12/16 07:43:18;;;;;;;;;58.60;46.00;;;;;11.12;41.98;99340.09;6190779;28;97462;-60
2020/12/16 07:46:21;;;;;;;;;61.00;47.00;;;;;10.91;42.23;99340.38;6184988;28;97581;-59
2020/12/16 07:49:23;;;;;;;;;57.75;45.00;;;;;10.84;42.71;99344.97;6186969;28;96913;-60
2020/12/16 07:52:26;;;;;;;;;58.50;46.00;;;;;11.88;41.74;99337.38;6207293;28;98612;-60
2020/12/16 07:55:29;;;;;;;;;59.40;47.00;;;;;13.07;39.68;99345.19;6187859;28;97050;-60
2020/12/16 07:58:31;;;;;;;;;58.67;46.00;;;;;13.99;38.17;99354.78;6187881;28;96879;-60
2020/12/16 08:01:32;;;;;;;;;58.00;45.75;;;;;14.62;37.14;99356.88;6187152;28;97577;-60
2020/12/16 08:04:34;;;;;;;;;54.50;44.00;;;;;14.91;36.41;99350.47;6190275;28;96991;-60
2020/12/16 08:07:36;;;;;;;;;58.80;46.00;;;;;14.69;36.40;99323.13;6184058;28;98116;-61
2020/12/16 08:10:37;;;;;;;;;60.00;46.00;;;;;14.88;36.13;99359.09;6183293;28;97385;-60
2020/12/16 08:13:38;;;;;;;;;56.00;46.00;;;;;14.92;36.00;99363.00;6169038;28;98352;-60
2020/12/16 08:16:41;;;;;;;;;56.80;45.00;;;;;15.02;35.86;99367.81;6184952;28;96699;-60
2020/12/16 08:19:42;;;;;;;;;58.50;45.50;;;;;15.34;35.59;99373.66;6185099;28;97097;-61
2020/12/16 08:22:46;;;;;;;;;56.00;44.20;;;;;15.49;35.22;99369.34;6185689;28;97113;-60
2020/12/16 08:25:47;;;;;;;;;56.00;44.00;;;;;15.98;34.82;99377.91;6184968;28;97118;-60
2020/12/16 08:28:50;;;;;;;;;57.60;44.20;;;;;16.83;33.73;99372.25;6182716;28;97425;-61
2020/12/16 08:32:02;;;;;;;;;57.00;44.00;;;;;17.53;32.71;99368.81;6174036;28;96696;-61
2020/12/16 08:35:07;;;;;;;;;54.00;43.00;;;;;18.07;31.96;99373.25;6177346;28;97024;-61
2020/12/16 08:38:10;;;;;;;;;55.60;44.00;;;;;18.26;31.64;99381.88;6185186;28;97176;-62
2020/12/16 08:41:15;;;;;;;;;56.50;45.00;;;;;18.77;31.23;99374.91;6185223;28;97457;-60
2020/12/16 08:44:22;;;;;;;;;56.50;44.00;;;;;19.66;29.99;99382.22;6185635;28;97479;-60
2020/12/16 08:47:27;;;;;;;;;55.75;44.75;;;;;20.67;28.98;99382.38;6167728;28;97683;-60
2020/12/16 08:50:28;;;;;;;;;54.75;43.50;;;;;21.71;27.35;99378.78;6190573;28;98135;-58
2020/12/16 08:53:46;;;;;;;;;50.40;40.00;;;;;22.31;25.98;99383.09;6184786;28;97919;-58
2020/12/16 08:56:56;;;;;;;;;52.00;43.00;;;;;22.72;25.67;99385.53;6184741;28;98014;-59
2020/12/16 09:00:07;;;;;;;;;55.00;42.40;;;;;22.69;25.22;99389.66;6182959;28;98199;-58
2020/12/16 09:03:12;;;;;;;;;52.00;41.00;;;;;22.40;24.99;99397.03;6185781;28;97196;-59
2020/12/16 09:06:14;;;;;;;;;54.50;42.25;;;;;22.09;25.47;99406.63;6184740;28;98714;-59
2020/12/16 09:09:15;;;;;;;;;50.20;42.00;;;;;21.88;25.55;99411.38;6168792;28;96498;-59
2020/12/16 09:12:23;;;;;;;;;54.40;42.60;;;;;21.79;25.84;99388.34;6184680;28;98149;-59
2020/12/16 09:15:25;;;;;;;;;52.00;42.00;;;;;22.01;25.57;99403.34;6169496;28;96520;-59
2020/12/16 09:18:28;;;;;;;;;58.00;45.00;;;;;22.36;25.09;99398.72;6184398;28;97503;-59
2020/12/16 09:21:35;;;;;;;;;57.00;44.40;;;;;22.74;25.20;99408.06;6184628;28;96919;-58
2020/12/16 09:24:37;;;;;;;;;65.40;50.00;;;;;22.82;24.70;99421.19;6183754;28;97544;-59
2020/12/16 09:27:49;;;;;;;;;67.00;52.00;;;;;22.86;24.93;99409.31;6186391;28;96931;-61
2020/12/16 09:30:50;;;;;;;;;64.40;51.20;;;;;22.97;24.88;99415.53;6183638;28;96755;-59
2020/12/16 09:33:55;;;;;;;;;66.75;51.00;;;;;23.04;24.58;99418.75;6175079;28;97600;-59
2020/12/16 09:37:19;;;;;;;;;68.25;52.00;;;;;23.20;24.50;99408.44;6178931;28;97643;-60
2020/12/16 09:40:25;;;;;;;;;63.75;50.00;;;;;22.97;23.61;99382.53;6176288;28;98764;-59
2020/12/16 09:43:40;;;;;;;;;67.60;51.00;;;;;23.09;24.30;99426.97;6174619;28;96720;-59
2020/12/16 09:46:41;;;;;;;;;67.00;52.00;;;;;22.79;23.79;99386.00;6183117;28;97308;-60
2020/12/16 09:49:45;;;;;;;;;66.00;51.00;;;;;22.53;24.34;99385.38;6185550;28;97178;-60
2020/12/16 09:52:47;;;;;;;;;66.20;51.00;;;;;22.40;25.11;99424.50;6186323;28;97422;-59
2020/12/16 09:55:49;;;;;;;;;63.80;49.80;;;;;22.01;25.29;99417.06;6184742;28;98631;-59
2020/12/16 09:58:51;;;;;;;;;63.40;50.00;;;;;21.67;25.46;99399.66;6180375;28;97120;-59
2020/12/16 10:01:53;;;;;;;;;62.00;50.00;;;;;21.46;25.89;99415.38;6183251;28;97372;-59
2020/12/16 10:04:56;;;;;;;;;62.60;50.60;;;;;20.93;26.11;99362.03;6187234;28;97194;-59
2020/12/16 10:07:57;;;;;;;;;66.00;50.00;;;;;21.10;26.61;99419.31;6171715;28;96714;-59
2020/12/16 10:10:58;;;;;;;;;62.50;48.00;;;;;21.14;26.64;99418.50;6171626;28;98651;-59
2020/12/16 10:14:00;;;;;;;;;65.00;49.25;;;;;21.50;26.30;99415.66;6183591;28;96976;-59
2020/12/16 10:17:01;;;;;;;;;59.80;47.00;;;;;21.86;25.61;99424.53;6183204;28;97503;-59
2020/12/16 10:20:04;;;;;;;;;63.40;50.00;;;;;22.16;25.23;99423.56;6175855;28;97640;-58
2020/12/16 10:23:06;;;;;;;;;63.60;49.00;;;;;22.41;25.15;99420.66;6183639;28;97461;-59
2020/12/16 10:26:08;;;;;;;;;62.00;48.00;;;;;22.65;25.03;99431.75;6184512;28;97208;-59
2020/12/16 10:29:09;;;;;;;;;62.00;48.00;;;;;22.89;24.74;99425.22;6185080;28;97182;-59
2020/12/16 10:32:11;;;;;;;;;55.40;44.00;;;;;23.16;24.18;99440.38;6185072;28;96623;-59
2020/12/16 10:35:12;;;;;;;;;56.40;45.00;;;;;23.43;24.08;99426.88;6183683;28;96745;-59
2020/12/16 10:38:14;;;;;;;;;53.40;41.60;;;;;23.61;23.70;99422.56;6186453;28;98517;-59
2020/12/16 10:41:15;;;;;;;;;58.00;46.00;;;;;23.71;23.64;99422.44;6189866;28;97467;-60
2020/12/16 10:44:16;;;;;;;;;60.25;46.75;;;;;23.57;23.17;99419.56;6188923;28;96772;-60
2020/12/16 10:47:19;;;;;;;;;65.25;50.00;;;;;23.59;23.45;99419.28;6188072;28;97350;-59
2020/12/16 10:50:20;;;;;;;;;58.00;44.80;;;;;22.93;23.76;99428.22;6188537;28;97337;-61
2020/12/16 10:53:22;;;;;;;;;61.00;48.00;;;;;22.52;24.09;99393.94;6180847;28;96649;-61
2020/12/16 10:56:23;;;;;;;;;58.20;46.40;;;;;22.21;24.50;99398.81;6185201;28;97000;-60
2020/12/16 10:59:25;;;;;;;;;53.00;44.00;;;;;22.19;24.49;99412.00;6182761;28;96989;-60
2020/12/16 11:02:43;;;;;;;;;56.80;44.80;;;;;21.96;25.03;99410.78;6184443;28;97081;-60
2020/12/16 11:05:45;;;;;;;;;52.60;42.00;;;;;21.90;24.92;99403.66;6185200;28;97532;-60
2020/12/16 11:08:46;;;;;;;;;52.00;42.00;;;;;21.80;25.17;99409.19;6186544;28;97466;-60
2020/12/16 11:11:49;;;;;;;;;49.00;40.00;;;;;22.01;24.97;99405.28;6186775;28;97463;-59
2020/12/16 11:14:51;;;;;;;;;47.00;39.00;;;;;22.36;24.44;99402.28;6182335;28;97579;-59
2020/12/16 11:17:52;;;;;;;;;47.80;37.40;;;;;22.80;24.21;99398.66;6186072;28;96833;-59
2020/12/16 11:20:54;;;;;;;;;49.25;39.25;;;;;23.25;23.44;99402.88;6190068;28;97579;-61
2020/12/16 11:23:55;;;;;;;;;46.50;36.00;;;;;23.30;23.00;99409.13;6187001;28;96816;-61
2020/12/16 11:26:57;;;;;;;;;44.00;35.40;;;;;22.89;23.34;99392.25;6174920;28;98592;-60
2020/12/16 11:29:58;;;;;;;;;47.67;38.00;;;;;22.85;23.48;99409.59;6173443;28;98787;-59
2020/12/16 11:32:59;;;;;;;;;46.25;38.75;;;;;22.66;23.85;99400.41;6183984;28;97537;-60
2020/12/16 11:36:01;;;;;;;;;47.00;38.00;;;;;22.24;24.23;99387.25;6187078;28;96670;-60
2020/12/16 11:39:03;;;;;;;;;43.60;36.00;;;;;21.73;24.83;99384.00;6171710;28;97496;-60
2020/12/16 11:42:04;;;;;;;;;43.20;36.20;;;;;21.44;25.21;99384.69;6185661;28;97482;-60
2020/12/16 11:45:06;;;;;;;;;42.25;35.50;;;;;21.06;25.77;99390.81;6187112;28;96959;-60
2020/12/16 11:48:07;;;;;;;;;35.60;32.60;;;;;20.66;26.04;99361.56;6191772;28;97472;-60
2020/12/16 11:51:09;;;;;;;;;37.00;32.00;;;;;20.58;26.14;99373.03;6186455;28;97023;-60
2020/12/16 11:54:10;;;;;;;;;43.00;33.40;;;;;20.10;26.18;99339.63;6196386;28;96971;-60
2020/12/16 11:57:11;;;;;;;;;40.00;33.00;;;;;20.04;27.06;99379.00;6190086;28;98315;-60
2020/12/16 12:00:13;;;;;;;;;39.60;34.00;;;;;19.70;27.31;99375.94;6185988;28;98472;-59
2020/12/16 12:03:18;;;;;;;;;43.60;33.00;;;;;19.47;27.79;99376.41;6197188;28;96689;-60
2020/12/16 12:06:19;;;;;;;;;39.00;33.00;;;;;19.32;28.10;99368.09;6186044;28;97065;-59
2020/12/16 12:09:22;;;;;;;;;34.60;30.20;;;;;19.31;28.45;99378.22;6183312;28;98574;-59
2020/12/16 12:12:28;;;;;;;;;36.25;32.00;;;;;19.00;27.98;99365.50;6189090;28;96565;-60
2020/12/16 12:15:32;;;;;;;;;35.20;31.80;;;;;19.08;28.23;99389.59;6192777;28;97721;-59
2020/12/16 12:18:35;;;;;;;;;39.40;32.00;;;;;18.97;28.22;99390.59;6186366;28;97654;-60
2020/12/16 12:21:36;;;;;;;;;37.50;32.00;;;;;18.98;28.62;99387.63;6188492;28;97199;-60
2020/12/16 12:24:38;;;;;;;;;39.00;32.00;;;;;19.18;28.41;99391.56;6188166;28;96896;-59
2020/12/16 12:27:40;;;;;;;;;40.00;32.40;;;;;19.12;28.24;99387.97;6186381;28;97223;-60
2020/12/16 12:30:42;;;;;;;;;38.60;32.20;;;;;19.26;28.34;99391.03;6179213;28;97542;-60
2020/12/16 12:33:43;;;;;;;;;41.00;34.00;;;;;19.03;28.14;99363.06;6187217;28;97712;-59
2020/12/16 12:36:45;;;;;;;;;40.33;34.00;;;;;19.06;28.45;99385.47;6185809;28;97041;-59
2020/12/16 12:39:46;;;;;;;;;43.40;34.40;;;;;18.70;29.15;99385.25;6185107;28;98529;-59
2020/12/16 12:42:47;;;;;;;;;38.00;33.00;;;;;18.30;29.70;99382.16;6184342;28;98601;-59
2020/12/16 12:45:49;;;;;;;;;44.80;35.00;;;;;17.84;30.36;99392.63;6187368;28;97734;-60
2020/12/16 12:48:51;;;;;;;;;39.00;33.60;;;;;17.42;30.71;99381.50;6188233;28;96869;-60
2020/12/16 12:51:53;;;;;;;;;40.40;34.00;;;;;16.87;31.37;99354.31;6176917;28;99406;-60
2020/12/16 12:54:54;;;;;;;;;41.00;35.00;;;;;16.72;32.04;99381.31;6190274;28;97814;-59
2020/12/16 12:57:55;;;;;;;;;45.00;35.00;;;;;16.44;32.51;99377.63;6177709;28;97617;-59
2020/12/16 13:00:57;;;;;;;;;37.80;33.40;;;;;16.15;33.05;99384.19;6188386;28;97484;-59
2020/12/16 13:03:58;;;;;;;;;41.00;34.00;;;;;15.51;33.49;99322.94;6186420;28;96664;-60
2020/12/16 13:07:00;;;;;;;;;39.50;33.00;;;;;15.61;34.05;99372.06;6183362;28;98877;-60
2020/12/16 13:10:06;;;;;;;;;45.00;35.00;;;;;15.41;34.55;99366.19;6184180;28;96825;-59
2020/12/16 13:13:07;;;;;;;;;43.50;35.00;;;;;15.21;34.89;99363.88;6188264;28;96750;-59
2020/12/16 13:16:09;;;;;;;;;45.40;35.80;;;;;15.05;35.23;99367.34;6175823;28;98202;-60
2020/12/16 13:19:17;;;;;;;;;42.50;36.00;;;;;14.61;35.66;99342.47;6189020;28;97850;-59
2020/12/16 13:22:21;;;;;;;;;42.00;35.00;;;;;14.71;35.70;99383.41;6187805;28;97289;-60
2020/12/16 13:25:22;;;;;;;;;45.00;35.00;;;;;14.59;36.09;99376.34;6187713;28;97697;-61
2020/12/16 13:28:24;;;;;;;;;45.00;36.25;;;;;14.18;36.46;99337.34;6186264;28;97588;-60
2020/12/16 13:31:26;;;;;;;;;43.80;36.00;;;;;14.20;36.88;99381.34;6180653;28;97522;-59
2020/12/16 13:34:27;;;;;;;;;45.00;36.00;;;;;14.05;37.26;99383.66;6180165;28;98121;-60
2020/12/16 13:37:29;;;;;;;;;45.00;36.00;;;;;13.90;37.50;99385.97;6183902;28;98126;-61
2020/12/16 13:40:30;;;;;;;;;45.00;36.00;;;;;13.64;37.62;99364.66;6173868;28;97333;-60
2020/12/16 13:43:33;;;;;;;;;45.00;36.00;;;;;13.65;37.93;99379.88;6175073;28;97402;-60
2020/12/16 13:46:34;;;;;;;;;45.40;36.00;;;;;13.53;38.51;99373.59;6185515;28;97504;-59
2020/12/16 13:49:35;;;;;;;;;47.00;36.00;;;;;13.44;38.45;99373.06;6185926;28;97569;-59
2020/12/16 13:52:38;;;;;;;;;49.40;38.40;;;;;13.01;38.43;99319.84;6181291;28;97633;-59
2020/12/16 13:55:40;;;;;;;;;47.00;37.00;;;;;13.21;38.84;99362.94;6184935;28;97714;-61
2020/12/16 13:58:41;;;;;;;;;47.40;38.00;;;;;13.19;38.99;99380.50;6186896;28;97530;-59
2020/12/16 14:01:43;;;;;;;;;45.00;38.00;;;;;13.15;39.20;99390.09;6188708;28;98597;-59
2020/12/16 14:04:44;;;;;;;;;46.20;38.00;;;;;13.07;39.53;99388.50;6189691;28;96911;-59
2020/12/16 14:07:45;;;;;;;;;49.40;39.20;;;;;12.95;39.78;99391.09;6188187;28;96724;-59
2020/12/16 14:10:47;;;;;;;;;47.40;38.00;;;;;12.85;40.13;99393.50;6187649;28;97313;-59
2020/12/16 14:13:51;;;;;;;;;45.60;38.00;;;;;12.80;40.33;99395.25;6193639;28;96928;-59